sensor_id;sensor_type;location;lat;lon;timestamp;temperature;humidity
14079;DHT22;7115;50.150;8.568;2022-09-01T00:02:28;20.30;71.00
14079;DHT22;7115;50.150;8.568;2022-09-01T00:04:55;20.30;71.10
14079;DHT22;7115;50.150;8.568;2022-09-01T00:07:28;20.30;71.10
14079;DHT22;7115;50.150;8.568;2022-09-01T00:10:01;20.30;71.20
14079;DHT22;7115;50.150;8.568;2022-09-01T00:12:29;20.30;71.20
14079;DHT22;7115;50.150;8.568;2022-09-01T00:14:56;20.20;71.30
14079;DHT22;7115;50.150;8.568;2022-09-01T00:17:24;20.20;71.30
14079;DHT22;7115;50.150;8.568;2022-09-01T00:19:51;20.20;71.40
14079;DHT22;7115;50.150;8.568;2022-09-01T00:22:18;20.10;71.40
14079;DHT22;7115;50.150;8.568;2022-09-01T00:24:45;20.10;72.30
14079;DHT22;7115;50.150;8.568;2022-09-01T00:27:12;20.10;71.60
14079;DHT22;7115;50.150;8.568;2022-09-01T00:29:39;20.10;71.70
14079;DHT22;7115;50.150;8.568;2022-09-01T00:32:10;20.10;71.80
14079;DHT22;7115;50.150;8.568;2022-09-01T00:34:37;20.00;71.80
14079;DHT22;7115;50.150;8.568;2022-09-01T00:37:03;20.00;71.90
14079;DHT22;7115;50.150;8.568;2022-09-01T00:39:31;20.00;72.00
14079;DHT22;7115;50.150;8.568;2022-09-01T00:41:58;19.90;72.10
14079;DHT22;7115;50.150;8.568;2022-09-01T00:44:25;19.90;72.20
14079;DHT22;7115;50.150;8.568;2022-09-01T00:46:57;19.90;72.20
14079;DHT22;7115;50.150;8.568;2022-09-01T00:49:29;19.90;72.30
14079;DHT22;7115;50.150;8.568;2022-09-01T00:52:18;19.90;72.40
14079;DHT22;7115;50.150;8.568;2022-09-01T00:54:49;19.90;72.50
14079;DHT22;7115;50.150;8.568;2022-09-01T00:57:19;19.90;72.50
14079;DHT22;7115;50.150;8.568;2022-09-01T00:59:56;19.80;72.50
14079;DHT22;7115;50.150;8.568;2022-09-01T01:02:24;19.90;72.70
14079;DHT22;7115;50.150;8.568;2022-09-01T01:04:52;19.80;72.60
14079;DHT22;7115;50.150;8.568;2022-09-01T01:07:22;19.80;72.70
14079;DHT22;7115;50.150;8.568;2022-09-01T01:09:49;19.80;72.80
14079;DHT22;7115;50.150;8.568;2022-09-01T01:12:16;19.90;72.90
14079;DHT22;7115;50.150;8.568;2022-09-01T01:14:48;19.80;72.90
14079;DHT22;7115;50.150;8.568;2022-09-01T01:17:18;19.80;73.00
14079;DHT22;7115;50.150;8.568;2022-09-01T01:19:49;19.80;73.10
14079;DHT22;7115;50.150;8.568;2022-09-01T01:25:21;19.80;73.20
14079;DHT22;7115;50.150;8.568;2022-09-01T01:27:48;19.70;73.30
14079;DHT22;7115;50.150;8.568;2022-09-01T01:30:17;19.80;73.50
14079;DHT22;7115;50.150;8.568;2022-09-01T01:32:44;19.70;73.50
14079;DHT22;7115;50.150;8.568;2022-09-01T01:35:14;19.70;73.60
14079;DHT22;7115;50.150;8.568;2022-09-01T01:37:45;19.70;73.70
14079;DHT22;7115;50.150;8.568;2022-09-01T01:40:17;19.70;74.00
14079;DHT22;7115;50.150;8.568;2022-09-01T01:42:47;19.50;73.70
14079;DHT22;7115;50.150;8.568;2022-09-01T01:45:18;19.70;73.90
14079;DHT22;7115;50.150;8.568;2022-09-01T01:47:47;19.70;74.10
14079;DHT22;7115;50.150;8.568;2022-09-01T01:50:25;19.70;74.20
14079;DHT22;7115;50.150;8.568;2022-09-01T01:52:53;19.70;74.30
14079;DHT22;7115;50.150;8.568;2022-09-01T01:55:24;19.60;74.30
14079;DHT22;7115;50.150;8.568;2022-09-01T01:57:54;19.60;74.60
14079;DHT22;7115;50.150;8.568;2022-09-01T02:00:27;19.60;74.60
14079;DHT22;7115;50.150;8.568;2022-09-01T02:02:57;19.60;74.80
14079;DHT22;7115;50.150;8.568;2022-09-01T02:05:27;19.50;74.90
14079;DHT22;7115;50.150;8.568;2022-09-01T02:07:56;19.50;75.00
14079;DHT22;7115;50.150;8.568;2022-09-01T02:10:27;19.50;75.10
14079;DHT22;7115;50.150;8.568;2022-09-01T02:12:57;19.50;75.20
14079;DHT22;7115;50.150;8.568;2022-09-01T02:15:35;19.50;75.40
14079;DHT22;7115;50.150;8.568;2022-09-01T02:18:08;19.50;75.60
14079;DHT22;7115;50.150;8.568;2022-09-01T02:20:35;19.50;75.60
14079;DHT22;7115;50.150;8.568;2022-09-01T02:23:02;19.40;75.70
14079;DHT22;7115;50.150;8.568;2022-09-01T02:25:36;19.40;75.80
14079;DHT22;7115;50.150;8.568;2022-09-01T02:28:21;19.40;75.90
14079;DHT22;7115;50.150;8.568;2022-09-01T02:30:50;19.40;76.00
14079;DHT22;7115;50.150;8.568;2022-09-01T02:33:19;19.40;76.10
14079;DHT22;7115;50.150;8.568;2022-09-01T02:35:49;19.40;76.20
14079;DHT22;7115;50.150;8.568;2022-09-01T02:38:16;19.40;76.20
14079;DHT22;7115;50.150;8.568;2022-09-01T02:40:44;19.40;76.30
14079;DHT22;7115;50.150;8.568;2022-09-01T02:43:14;19.40;76.40
14079;DHT22;7115;50.150;8.568;2022-09-01T02:45:47;19.40;76.40
14079;DHT22;7115;50.150;8.568;2022-09-01T02:48:17;19.40;76.50
14079;DHT22;7115;50.150;8.568;2022-09-01T02:50:44;19.40;76.50
14079;DHT22;7115;50.150;8.568;2022-09-01T02:53:11;19.40;76.60
14079;DHT22;7115;50.150;8.568;2022-09-01T02:55:43;19.40;76.60
14079;DHT22;7115;50.150;8.568;2022-09-01T02:58:10;19.50;76.70
14079;DHT22;7115;50.150;8.568;2022-09-01T03:00:42;19.50;76.70
14079;DHT22;7115;50.150;8.568;2022-09-01T03:03:10;19.50;76.70
14079;DHT22;7115;50.150;8.568;2022-09-01T03:05:42;19.40;76.70
14079;DHT22;7115;50.150;8.568;2022-09-01T03:08:10;19.40;76.70
14079;DHT22;7115;50.150;8.568;2022-09-01T03:10:42;19.50;76.90
14079;DHT22;7115;50.150;8.568;2022-09-01T03:13:15;19.40;76.90
14079;DHT22;7115;50.150;8.568;2022-09-01T03:15:43;19.40;77.00
14079;DHT22;7115;50.150;8.568;2022-09-01T03:18:12;19.40;77.00
14079;DHT22;7115;50.150;8.568;2022-09-01T03:20:43;19.40;77.20
14079;DHT22;7115;50.150;8.568;2022-09-01T03:23:13;19.40;78.00
14079;DHT22;7115;50.150;8.568;2022-09-01T03:25:46;19.20;77.20
14079;DHT22;7115;50.150;8.568;2022-09-01T03:28:14;19.40;77.30
14079;DHT22;7115;50.150;8.568;2022-09-01T03:30:49;19.40;77.40
14079;DHT22;7115;50.150;8.568;2022-09-01T03:33:18;19.30;77.50
14079;DHT22;7115;50.150;8.568;2022-09-01T03:35:46;19.40;77.60
14079;DHT22;7115;50.150;8.568;2022-09-01T03:38:14;19.30;77.60
14079;DHT22;7115;50.150;8.568;2022-09-01T03:40:49;19.30;77.70
14079;DHT22;7115;50.150;8.568;2022-09-01T03:43:16;19.30;77.70
14079;DHT22;7115;50.150;8.568;2022-09-01T03:45:45;19.30;77.80
14079;DHT22;7115;50.150;8.568;2022-09-01T03:48:12;19.20;77.80
14079;DHT22;7115;50.150;8.568;2022-09-01T03:50:44;19.30;78.00
14079;DHT22;7115;50.150;8.568;2022-09-01T03:53:17;19.20;77.90
14079;DHT22;7115;50.150;8.568;2022-09-01T03:55:47;19.20;78.00
14079;DHT22;7115;50.150;8.568;2022-09-01T03:58:16;19.20;78.00
14079;DHT22;7115;50.150;8.568;2022-09-01T04:00:50;19.20;78.10
14079;DHT22;7115;50.150;8.568;2022-09-01T04:03:26;19.20;78.10
14079;DHT22;7115;50.150;8.568;2022-09-01T04:05:55;19.20;78.10
14079;DHT22;7115;50.150;8.568;2022-09-01T04:08:22;19.20;78.20
14079;DHT22;7115;50.150;8.568;2022-09-01T04:11:02;19.20;78.30
14079;DHT22;7115;50.150;8.568;2022-09-01T04:13:34;19.10;78.30
14079;DHT22;7115;50.150;8.568;2022-09-01T04:16:02;19.10;78.40
14079;DHT22;7115;50.150;8.568;2022-09-01T04:18:31;19.10;78.50
14079;DHT22;7115;50.150;8.568;2022-09-01T04:20:58;19.10;78.60
14079;DHT22;7115;50.150;8.568;2022-09-01T04:26:10;19.00;78.70
14079;DHT22;7115;50.150;8.568;2022-09-01T04:28:42;19.00;78.70
14079;DHT22;7115;50.150;8.568;2022-09-01T04:31:15;19.00;78.70
14079;DHT22;7115;50.150;8.568;2022-09-01T04:33:46;19.00;78.80
14079;DHT22;7115;50.150;8.568;2022-09-01T04:38:46;18.90;78.90
14079;DHT22;7115;50.150;8.568;2022-09-01T04:41:13;18.90;79.00
14079;DHT22;7115;50.150;8.568;2022-09-01T04:43:44;18.90;79.10
14079;DHT22;7115;50.150;8.568;2022-09-01T04:46:15;18.80;79.10
14079;DHT22;7115;50.150;8.568;2022-09-01T04:48:43;18.80;79.20
14079;DHT22;7115;50.150;8.568;2022-09-01T04:51:12;18.80;79.20
14079;DHT22;7115;50.150;8.568;2022-09-01T04:53:41;18.80;79.20
14079;DHT22;7115;50.150;8.568;2022-09-01T04:56:18;18.80;79.30
14079;DHT22;7115;50.150;8.568;2022-09-01T04:58:46;18.80;79.40
14079;DHT22;7115;50.150;8.568;2022-09-01T05:01:15;18.70;79.30
14079;DHT22;7115;50.150;8.568;2022-09-01T05:03:43;18.70;79.40
14079;DHT22;7115;50.150;8.568;2022-09-01T05:06:18;18.60;79.40
14079;DHT22;7115;50.150;8.568;2022-09-01T05:08:45;18.50;79.40
14079;DHT22;7115;50.150;8.568;2022-09-01T05:11:13;18.50;79.50
14079;DHT22;7115;50.150;8.568;2022-09-01T05:13:44;18.50;79.60
14079;DHT22;7115;50.150;8.568;2022-09-01T05:16:14;18.40;79.70
14079;DHT22;7115;50.150;8.568;2022-09-01T05:18:44;18.40;79.80
14079;DHT22;7115;50.150;8.568;2022-09-01T05:21:17;18.40;80.70
14079;DHT22;7115;50.150;8.568;2022-09-01T05:23:45;18.40;80.00
14079;DHT22;7115;50.150;8.568;2022-09-01T05:26:14;18.40;80.10
14079;DHT22;7115;50.150;8.568;2022-09-01T05:28:45;18.40;80.10
14079;DHT22;7115;50.150;8.568;2022-09-01T05:31:12;18.40;80.10
14079;DHT22;7115;50.150;8.568;2022-09-01T05:33:39;18.40;80.10
14079;DHT22;7115;50.150;8.568;2022-09-01T05:36:13;18.40;80.10
14079;DHT22;7115;50.150;8.568;2022-09-01T05:38:40;18.50;80.10
14079;DHT22;7115;50.150;8.568;2022-09-01T05:41:12;18.50;80.20
14079;DHT22;7115;50.150;8.568;2022-09-01T05:43:45;18.50;80.20
14079;DHT22;7115;50.150;8.568;2022-09-01T05:46:15;18.60;80.20
14079;DHT22;7115;50.150;8.568;2022-09-01T05:48:43;18.60;80.20
14079;DHT22;7115;50.150;8.568;2022-09-01T05:51:11;18.70;80.30
14079;DHT22;7115;50.150;8.568;2022-09-01T05:54:02;18.60;80.20
14079;DHT22;7115;50.150;8.568;2022-09-01T05:56:32;18.70;79.80
14079;DHT22;7115;50.150;8.568;2022-09-01T05:59:00;18.70;80.20
14079;DHT22;7115;50.150;8.568;2022-09-01T06:01:47;18.80;80.30
14079;DHT22;7115;50.150;8.568;2022-09-01T06:04:16;18.80;80.30
14079;DHT22;7115;50.150;8.568;2022-09-01T06:06:46;18.90;80.30
14079;DHT22;7115;50.150;8.568;2022-09-01T06:09:36;18.90;80.30
14079;DHT22;7115;50.150;8.568;2022-09-01T06:12:04;19.00;80.30
14079;DHT22;7115;50.150;8.568;2022-09-01T06:14:32;19.00;80.30
14079;DHT22;7115;50.150;8.568;2022-09-01T06:16:59;19.10;80.30
14079;DHT22;7115;50.150;8.568;2022-09-01T06:19:26;19.10;80.20
14079;DHT22;7115;50.150;8.568;2022-09-01T06:21:54;19.20;80.10
14079;DHT22;7115;50.150;8.568;2022-09-01T06:24:21;19.30;80.00
14079;DHT22;7115;50.150;8.568;2022-09-01T06:26:48;19.30;79.90
14079;DHT22;7115;50.150;8.568;2022-09-01T06:29:14;19.30;79.80
14079;DHT22;7115;50.150;8.568;2022-09-01T06:31:43;19.40;79.80
14079;DHT22;7115;50.150;8.568;2022-09-01T06:34:17;19.30;79.70
14079;DHT22;7115;50.150;8.568;2022-09-01T06:36:46;19.40;79.60
14079;DHT22;7115;50.150;8.568;2022-09-01T06:39:15;19.40;79.60
14079;DHT22;7115;50.150;8.568;2022-09-01T06:41:49;19.50;79.60
14079;DHT22;7115;50.150;8.568;2022-09-01T06:44:19;19.50;79.40
14079;DHT22;7115;50.150;8.568;2022-09-01T06:46:49;19.60;79.30
14079;DHT22;7115;50.150;8.568;2022-09-01T06:49:18;19.70;79.20
14079;DHT22;7115;50.150;8.568;2022-09-01T06:51:47;19.70;79.00
14079;DHT22;7115;50.150;8.568;2022-09-01T06:54:17;19.80;78.80
14079;DHT22;7115;50.150;8.568;2022-09-01T06:56:46;19.80;78.80
14079;DHT22;7115;50.150;8.568;2022-09-01T06:59:18;19.90;78.70
14079;DHT22;7115;50.150;8.568;2022-09-01T07:01:46;19.90;78.50
14079;DHT22;7115;50.150;8.568;2022-09-01T07:04:14;20.00;78.30
14079;DHT22;7115;50.150;8.568;2022-09-01T07:06:47;20.20;78.10
14079;DHT22;7115;50.150;8.568;2022-09-01T07:09:40;20.30;77.90
14079;DHT22;7115;50.150;8.568;2022-09-01T07:12:28;20.50;77.60
14079;DHT22;7115;50.150;8.568;2022-09-01T07:14:55;20.60;77.10
14079;DHT22;7115;50.150;8.568;2022-09-01T07:17:51;20.70;76.90
14079;DHT22;7115;50.150;8.568;2022-09-01T07:20:21;20.70;76.50
14079;DHT22;7115;50.150;8.568;2022-09-01T07:23:09;20.90;76.20
14079;DHT22;7115;50.150;8.568;2022-09-01T07:25:38;21.00;75.90
14079;DHT22;7115;50.150;8.568;2022-09-01T07:28:27;21.20;75.70
14079;DHT22;7115;50.150;8.568;2022-09-01T07:31:02;21.70;75.10
14079;DHT22;7115;50.150;8.568;2022-09-01T07:33:52;22.20;74.00
14079;DHT22;7115;50.150;8.568;2022-09-01T07:36:41;22.70;72.80
14079;DHT22;7115;50.150;8.568;2022-09-01T07:39:28;23.00;71.70
14079;DHT22;7115;50.150;8.568;2022-09-01T07:42:18;23.10;71.00
14079;DHT22;7115;50.150;8.568;2022-09-01T07:45:09;23.20;70.60
14079;DHT22;7115;50.150;8.568;2022-09-01T07:47:54;23.30;70.20
14079;DHT22;7115;50.150;8.568;2022-09-01T07:50:21;23.40;70.00
14079;DHT22;7115;50.150;8.568;2022-09-01T07:53:10;23.50;69.60
14079;DHT22;7115;50.150;8.568;2022-09-01T07:55:41;23.50;69.20
14079;DHT22;7115;50.150;8.568;2022-09-01T07:58:10;23.60;68.90
14079;DHT22;7115;50.150;8.568;2022-09-01T08:00:39;23.60;68.60
14079;DHT22;7115;50.150;8.568;2022-09-01T08:03:05;23.60;68.40
14079;DHT22;7115;50.150;8.568;2022-09-01T08:05:32;23.60;68.20
14079;DHT22;7115;50.150;8.568;2022-09-01T08:07:59;23.60;68.10
14079;DHT22;7115;50.150;8.568;2022-09-01T08:10:27;23.70;68.00
14079;DHT22;7115;50.150;8.568;2022-09-01T08:12:54;23.60;67.60
14079;DHT22;7115;50.150;8.568;2022-09-01T08:15:23;23.60;67.60
14079;DHT22;7115;50.150;8.568;2022-09-01T08:18:11;23.60;67.60
14079;DHT22;7115;50.150;8.568;2022-09-01T08:20:41;23.70;67.60
14079;DHT22;7115;50.150;8.568;2022-09-01T08:23:13;23.70;67.40
14079;DHT22;7115;50.150;8.568;2022-09-01T08:25:42;23.80;67.10
14079;DHT22;7115;50.150;8.568;2022-09-01T08:28:10;23.90;67.00
14079;DHT22;7115;50.150;8.568;2022-09-01T08:30:39;24.00;66.70
14079;DHT22;7115;50.150;8.568;2022-09-01T08:33:07;24.20;66.50
14079;DHT22;7115;50.150;8.568;2022-09-01T08:35:38;24.40;66.00
14079;DHT22;7115;50.150;8.568;2022-09-01T08:38:06;24.50;65.50
14079;DHT22;7115;50.150;8.568;2022-09-01T08:40:33;24.60;66.00
14079;DHT22;7115;50.150;8.568;2022-09-01T08:43:17;24.70;65.00
14079;DHT22;7115;50.150;8.568;2022-09-01T08:45:53;24.80;64.70
14079;DHT22;7115;50.150;8.568;2022-09-01T08:48:39;24.90;64.50
14079;DHT22;7115;50.150;8.568;2022-09-01T08:57:20;25.10;63.60
14079;DHT22;7115;50.150;8.568;2022-09-01T08:59:47;25.20;63.60
14079;DHT22;7115;50.150;8.568;2022-09-01T09:02:50;25.20;63.40
14079;DHT22;7115;50.150;8.568;2022-09-01T09:15:56;25.50;62.90
14079;DHT22;7115;50.150;8.568;2022-09-01T09:27:05;26.00;61.90
14079;DHT22;7115;50.150;8.568;2022-09-01T09:29:35;26.10;61.70
14079;DHT22;7115;50.150;8.568;2022-09-01T09:32:07;26.40;61.30
14079;DHT22;7115;50.150;8.568;2022-09-01T09:34:49;26.50;60.80
14079;DHT22;7115;50.150;8.568;2022-09-01T09:37:28;26.70;60.50
14079;DHT22;7115;50.150;8.568;2022-09-01T09:40:18;26.80;60.00
14079;DHT22;7115;50.150;8.568;2022-09-01T09:45:27;27.10;59.50
14079;DHT22;7115;50.150;8.568;2022-09-01T09:47:56;27.20;59.40
14079;DHT22;7115;50.150;8.568;2022-09-01T09:50:59;27.30;59.10
14079;DHT22;7115;50.150;8.568;2022-09-01T09:58:38;27.80;58.10
14079;DHT22;7115;50.150;8.568;2022-09-01T10:03:55;27.90;57.80
14079;DHT22;7115;50.150;8.568;2022-09-01T10:09:01;27.90;57.50
14079;DHT22;7115;50.150;8.568;2022-09-01T10:11:36;28.00;57.50
14079;DHT22;7115;50.150;8.568;2022-09-01T10:14:20;28.10;57.20
14079;DHT22;7115;50.150;8.568;2022-09-01T10:17:15;28.00;56.90
14079;DHT22;7115;50.150;8.568;2022-09-01T10:19:57;28.00;57.00
14079;DHT22;7115;50.150;8.568;2022-09-01T10:22:30;28.00;56.90
14079;DHT22;7115;50.150;8.568;2022-09-01T10:24:59;28.20;56.90
14079;DHT22;7115;50.150;8.568;2022-09-01T10:27:30;28.30;56.70
14079;DHT22;7115;50.150;8.568;2022-09-01T10:32:52;28.80;56.10
14079;DHT22;7115;50.150;8.568;2022-09-01T10:35:29;28.90;55.90
14079;DHT22;7115;50.150;8.568;2022-09-01T10:37:58;29.00;55.60
14079;DHT22;7115;50.150;8.568;2022-09-01T10:43:24;29.50;55.20
14079;DHT22;7115;50.150;8.568;2022-09-01T10:45:53;29.80;54.60
14079;DHT22;7115;50.150;8.568;2022-09-01T10:48:32;30.00;54.50
14079;DHT22;7115;50.150;8.568;2022-09-01T10:53:53;30.30;54.40
14079;DHT22;7115;50.150;8.568;2022-09-01T10:56:24;30.40;53.10
14079;DHT22;7115;50.150;8.568;2022-09-01T10:59:05;30.30;52.80
14079;DHT22;7115;50.150;8.568;2022-09-01T11:15:39;30.90;51.70
14079;DHT22;7115;50.150;8.568;2022-09-01T11:18:24;30.80;51.20
14079;DHT22;7115;50.150;8.568;2022-09-01T11:20:53;30.90;51.10
14079;DHT22;7115;50.150;8.568;2022-09-01T11:23:28;31.00;50.90
14079;DHT22;7115;50.150;8.568;2022-09-01T11:28:48;30.40;50.40
14079;DHT22;7115;50.150;8.568;2022-09-01T11:31:21;30.00;51.00
14079;DHT22;7115;50.150;8.568;2022-09-01T11:34:00;29.80;51.20
14079;DHT22;7115;50.150;8.568;2022-09-01T11:36:46;29.60;51.30
14079;DHT22;7115;50.150;8.568;2022-09-01T11:44:25;30.50;51.30
14079;DHT22;7115;50.150;8.568;2022-09-01T11:46:58;31.20;50.50
14079;DHT22;7115;50.150;8.568;2022-09-01T11:49:31;31.80;49.90
14079;DHT22;7115;50.150;8.568;2022-09-01T11:52:00;32.30;49.30
14079;DHT22;7115;50.150;8.568;2022-09-01T11:54:34;33.00;48.60
14079;DHT22;7115;50.150;8.568;2022-09-01T11:59:51;33.60;46.60
14079;DHT22;7115;50.150;8.568;2022-09-01T12:02:42;33.40;46.50
14079;DHT22;7115;50.150;8.568;2022-09-01T12:05:42;33.30;45.80
14079;DHT22;7115;50.150;8.568;2022-09-01T12:08:14;33.00;45.80
14079;DHT22;7115;50.150;8.568;2022-09-01T12:10:49;32.80;46.30
14079;DHT22;7115;50.150;8.568;2022-09-01T12:13:17;32.80;46.40
14079;DHT22;7115;50.150;8.568;2022-09-01T12:15:53;33.00;46.20
14079;DHT22;7115;50.150;8.568;2022-09-01T12:18:46;33.30;45.50
14079;DHT22;7115;50.150;8.568;2022-09-01T12:21:35;33.30;45.20
14079;DHT22;7115;50.150;8.568;2022-09-01T12:24:18;33.10;45.10
14079;DHT22;7115;50.150;8.568;2022-09-01T12:26:47;33.20;45.20
14079;DHT22;7115;50.150;8.568;2022-09-01T12:29:15;33.30;44.90
14079;DHT22;7115;50.150;8.568;2022-09-01T12:31:46;33.40;44.70
14079;DHT22;7115;50.150;8.568;2022-09-01T12:34:47;33.70;44.50
14079;DHT22;7115;50.150;8.568;2022-09-01T12:37:25;34.00;44.10
14079;DHT22;7115;50.150;8.568;2022-09-01T12:39:54;34.00;44.10
14079;DHT22;7115;50.150;8.568;2022-09-01T12:45:00;33.60;44.10
14079;DHT22;7115;50.150;8.568;2022-09-01T12:50:07;33.20;44.20
14079;DHT22;7115;50.150;8.568;2022-09-01T12:52:36;33.10;44.40
14079;DHT22;7115;50.150;8.568;2022-09-01T12:55:19;32.90;44.40
14079;DHT22;7115;50.150;8.568;2022-09-01T12:58:07;32.60;44.60
14079;DHT22;7115;50.150;8.568;2022-09-01T13:00:59;32.30;44.90
14079;DHT22;7115;50.150;8.568;2022-09-01T13:03:28;31.90;45.00
14079;DHT22;7115;50.150;8.568;2022-09-01T13:05:57;31.20;45.30
14079;DHT22;7115;50.150;8.568;2022-09-01T13:08:33;30.80;45.70
14079;DHT22;7115;50.150;8.568;2022-09-01T13:11:07;30.50;45.90
14079;DHT22;7115;50.150;8.568;2022-09-01T13:13:36;30.30;46.20
14079;DHT22;7115;50.150;8.568;2022-09-01T13:16:03;29.90;46.50
14079;DHT22;7115;50.150;8.568;2022-09-01T13:18:40;29.50;47.10
14079;DHT22;7115;50.150;8.568;2022-09-01T13:21:27;29.00;47.50
14079;DHT22;7115;50.150;8.568;2022-09-01T13:23:54;28.60;48.00
14079;DHT22;7115;50.150;8.568;2022-09-01T13:26:21;28.40;48.40
14079;DHT22;7115;50.150;8.568;2022-09-01T13:28:48;28.30;48.60
14079;DHT22;7115;50.150;8.568;2022-09-01T13:31:15;28.30;48.60
14079;DHT22;7115;50.150;8.568;2022-09-01T13:33:59;28.40;48.70
14079;DHT22;7115;50.150;8.568;2022-09-01T13:36:46;28.40;48.80
14079;DHT22;7115;50.150;8.568;2022-09-01T13:39:18;28.60;48.90
14079;DHT22;7115;50.150;8.568;2022-09-01T13:41:46;28.70;48.90
14079;DHT22;7115;50.150;8.568;2022-09-01T13:44:14;28.80;49.00
14079;DHT22;7115;50.150;8.568;2022-09-01T13:46:44;29.00;48.90
14079;DHT22;7115;50.150;8.568;2022-09-01T13:49:31;29.00;48.90
14079;DHT22;7115;50.150;8.568;2022-09-01T13:52:18;29.00;49.00
14079;DHT22;7115;50.150;8.568;2022-09-01T13:54:44;29.10;48.90
14079;DHT22;7115;50.150;8.568;2022-09-01T13:57:12;29.10;48.80
14079;DHT22;7115;50.150;8.568;2022-09-01T13:59:40;29.10;48.50
14079;DHT22;7115;50.150;8.568;2022-09-01T14:02:07;29.10;48.40
14079;DHT22;7115;50.150;8.568;2022-09-01T14:04:34;29.20;48.40
14079;DHT22;7115;50.150;8.568;2022-09-01T14:07:01;29.10;48.30
14079;DHT22;7115;50.150;8.568;2022-09-01T14:09:28;29.10;48.30
14079;DHT22;7115;50.150;8.568;2022-09-01T14:11:55;29.00;48.10
14079;DHT22;7115;50.150;8.568;2022-09-01T14:14:22;28.90;48.00
14079;DHT22;7115;50.150;8.568;2022-09-01T14:16:49;28.80;48.00
14079;DHT22;7115;50.150;8.568;2022-09-01T14:19:16;28.80;48.00
14079;DHT22;7115;50.150;8.568;2022-09-01T14:21:43;28.80;48.00
14079;DHT22;7115;50.150;8.568;2022-09-01T14:24:11;28.70;48.00
14079;DHT22;7115;50.150;8.568;2022-09-01T14:26:40;28.80;47.70
14079;DHT22;7115;50.150;8.568;2022-09-01T14:29:07;28.70;46.90
14079;DHT22;7115;50.150;8.568;2022-09-01T14:31:34;28.70;46.50
14079;DHT22;7115;50.150;8.568;2022-09-01T14:34:03;28.70;46.30
14079;DHT22;7115;50.150;8.568;2022-09-01T14:36:30;28.80;46.40
14079;DHT22;7115;50.150;8.568;2022-09-01T14:38:57;29.00;46.60
14079;DHT22;7115;50.150;8.568;2022-09-01T14:41:25;29.10;46.50
14079;DHT22;7115;50.150;8.568;2022-09-01T14:43:53;29.20;46.20
14079;DHT22;7115;50.150;8.568;2022-09-01T14:46:24;29.30;46.00
14079;DHT22;7115;50.150;8.568;2022-09-01T14:48:51;29.40;46.00
14079;DHT22;7115;50.150;8.568;2022-09-01T14:51:24;29.50;46.00
14079;DHT22;7115;50.150;8.568;2022-09-01T14:54:11;29.60;46.50
14079;DHT22;7115;50.150;8.568;2022-09-01T14:56:39;29.80;45.90
14079;DHT22;7115;50.150;8.568;2022-09-01T14:59:06;29.80;45.80
14079;DHT22;7115;50.150;8.568;2022-09-01T15:01:36;29.90;45.70
14079;DHT22;7115;50.150;8.568;2022-09-01T15:04:03;29.90;45.50
14079;DHT22;7115;50.150;8.568;2022-09-01T15:06:30;30.00;45.40
14079;DHT22;7115;50.150;8.568;2022-09-01T15:08:57;30.00;45.30
14079;DHT22;7115;50.150;8.568;2022-09-01T15:11:25;29.90;45.30
14079;DHT22;7115;50.150;8.568;2022-09-01T15:13:53;29.70;45.30
14079;DHT22;7115;50.150;8.568;2022-09-01T15:16:23;29.50;45.40
14079;DHT22;7115;50.150;8.568;2022-09-01T15:18:51;29.30;45.50
14079;DHT22;7115;50.150;8.568;2022-09-01T15:21:27;29.20;45.60
14079;DHT22;7115;50.150;8.568;2022-09-01T15:23:56;29.20;45.70
14079;DHT22;7115;50.150;8.568;2022-09-01T15:26:23;29.20;45.70
14079;DHT22;7115;50.150;8.568;2022-09-01T15:28:49;29.20;45.50
14079;DHT22;7115;50.150;8.568;2022-09-01T15:31:18;29.20;45.40
14079;DHT22;7115;50.150;8.568;2022-09-01T15:33:59;29.20;45.30
14079;DHT22;7115;50.150;8.568;2022-09-01T15:36:27;29.10;45.30
14079;DHT22;7115;50.150;8.568;2022-09-01T15:38:56;29.00;45.30
14079;DHT22;7115;50.150;8.568;2022-09-01T15:41:26;28.90;45.40
14079;DHT22;7115;50.150;8.568;2022-09-01T15:43:53;28.70;45.30
14079;DHT22;7115;50.150;8.568;2022-09-01T15:46:21;28.70;45.40
14079;DHT22;7115;50.150;8.568;2022-09-01T15:48:48;28.60;45.40
14079;DHT22;7115;50.150;8.568;2022-09-01T15:53:53;28.40;45.40
14079;DHT22;7115;50.150;8.568;2022-09-01T15:56:20;28.20;45.60
14079;DHT22;7115;50.150;8.568;2022-09-01T15:58:49;28.10;45.80
14079;DHT22;7115;50.150;8.568;2022-09-01T16:01:29;27.90;45.90
14079;DHT22;7115;50.150;8.568;2022-09-01T16:03:56;27.80;46.00
14079;DHT22;7115;50.150;8.568;2022-09-01T16:06:23;27.60;46.30
14079;DHT22;7115;50.150;8.568;2022-09-01T16:08:52;27.60;46.50
14079;DHT22;7115;50.150;8.568;2022-09-01T16:11:22;27.50;46.50
14079;DHT22;7115;50.150;8.568;2022-09-01T16:13:50;27.50;46.70
14079;DHT22;7115;50.150;8.568;2022-09-01T16:24:26;27.50;46.90
14079;DHT22;7115;50.150;8.568;2022-09-01T16:26:55;27.50;46.90
14079;DHT22;7115;50.150;8.568;2022-09-01T16:29:52;27.50;46.90
14079;DHT22;7115;50.150;8.568;2022-09-01T16:32:21;27.40;46.90
14079;DHT22;7115;50.150;8.568;2022-09-01T16:34:51;27.40;46.90
14079;DHT22;7115;50.150;8.568;2022-09-01T16:37:42;27.40;46.90
14079;DHT22;7115;50.150;8.568;2022-09-01T16:40:43;27.50;46.90
14079;DHT22;7115;50.150;8.568;2022-09-01T16:56:49;27.20;47.10
14079;DHT22;7115;50.150;8.568;2022-09-01T16:59:31;27.20;47.20
14079;DHT22;7115;50.150;8.568;2022-09-01T17:03:16;27.10;47.20
14079;DHT22;7115;50.150;8.568;2022-09-01T17:05:26;27.00;47.20
14079;DHT22;7115;50.150;8.568;2022-09-01T17:08:20;27.00;47.40
14079;DHT22;7115;50.150;8.568;2022-09-01T17:10:56;27.00;47.50
14079;DHT22;7115;50.150;8.568;2022-09-01T17:16:17;26.90;47.80
14079;DHT22;7115;50.150;8.568;2022-09-01T17:18:55;26.80;47.90
14079;DHT22;7115;50.150;8.568;2022-09-01T17:24:35;26.50;48.20
14079;DHT22;7115;50.150;8.568;2022-09-01T17:27:30;26.40;48.50
14079;DHT22;7115;50.150;8.568;2022-09-01T17:29:55;26.30;48.60
14079;DHT22;7115;50.150;8.568;2022-09-01T17:46:47;25.80;49.60
14079;DHT22;7115;50.150;8.568;2022-09-01T17:49:36;25.70;49.70
14079;DHT22;7115;50.150;8.568;2022-09-01T18:07:45;25.30;50.50
14079;DHT22;7115;50.150;8.568;2022-09-01T18:10:24;25.20;50.50
14079;DHT22;7115;50.150;8.568;2022-09-01T18:12:59;25.20;50.60
14079;DHT22;7115;50.150;8.568;2022-09-01T18:15:28;25.10;50.70
14079;DHT22;7115;50.150;8.568;2022-09-01T18:18:09;25.10;50.90
14079;DHT22;7115;50.150;8.568;2022-09-01T18:20:45;25.10;51.00
14079;DHT22;7115;50.150;8.568;2022-09-01T18:23:18;25.00;51.00
14079;DHT22;7115;50.150;8.568;2022-09-01T18:25:46;25.00;51.10
14079;DHT22;7115;50.150;8.568;2022-09-01T18:28:15;25.00;51.20
14079;DHT22;7115;50.150;8.568;2022-09-01T18:30:59;25.00;51.30
14079;DHT22;7115;50.150;8.568;2022-09-01T18:33:35;25.00;51.40
14079;DHT22;7115;50.150;8.568;2022-09-01T18:39:14;24.90;51.50
14079;DHT22;7115;50.150;8.568;2022-09-01T18:41:42;24.90;51.60
14079;DHT22;7115;50.150;8.568;2022-09-01T18:44:19;24.80;51.60
14079;DHT22;7115;50.150;8.568;2022-09-01T18:55:07;24.60;51.80
14079;DHT22;7115;50.150;8.568;2022-09-01T18:57:37;24.50;51.80